Time;durP1;ratioP1;P1;durP2;ratioP2;P2;SDS_P1;SDS_P2;PMS_P1;PMS_P2;Temp;Humidity;BMP_temperature;BMP_pressure;BME280_temperature;BME280_humidity;BME280_pressure;Samples;Min_cycle;Max_cycle;Signal;HPM_P1;HPM_P2
2023/08/18 00:01:23;;;;;;;11.13;3.42;;;;;;;36.80;26.73;100070.50;5025887;28;20057;-77
2023/08/18 00:03:52;;;;;;;8.35;2.83;;;;;;;36.82;26.08;100071.22;5021009;28;20623;-81
2023/08/18 00:06:22;;;;;;;9.55;3.10;;;;;;;36.88;25.67;100067.97;5021161;28;20447;-83
2023/08/18 00:08:53;;;;;;;14.20;3.85;;;;;;;36.92;24.56;100067.66;5022946;28;20414;-78
2023/08/18 00:11:22;;;;;;;8.50;3.45;;;;;;;36.89;24.44;100064.25;5029510;28;20056;-76
2023/08/18 00:13:50;;;;;;;8.00;3.00;;;;;;;36.87;25.65;100057.31;5021869;28;20415;-81
2023/08/18 00:16:19;;;;;;;7.18;3.38;;;;;;;36.95;25.68;100051.19;5022209;28;20062;-79
2023/08/18 00:18:58;;;;;;;8.10;3.33;;;;;;;36.96;25.35;100047.53;5000981;28;20120;-83
2023/08/18 00:21:28;;;;;;;7.80;3.65;;;;;;;36.93;27.03;100050.47;5006391;28;20056;-76
2023/08/18 00:23:57;;;;;;;14.20;3.60;;;;;;;36.92;25.86;100051.50;5010266;28;20113;-77
2023/08/18 00:26:26;;;;;;;7.60;2.90;;;;;;;36.92;25.22;100051.50;5001469;28;20053;-77
2023/08/18 00:28:59;;;;;;;8.27;2.80;;;;;;;36.96;24.71;100042.13;5008008;28;20419;-75
2023/08/18 00:31:28;;;;;;;7.20;2.95;;;;;;;36.91;25.15;100042.56;5012724;28;20176;-76
2023/08/18 00:33:57;;;;;;;8.55;3.25;;;;;;;36.74;25.08;100043.25;5011102;28;20966;-76
2023/08/18 00:36:27;;;;;;;8.57;3.05;;;;;;;36.59;26.17;100034.75;5012600;28;20050;-81
2023/08/18 00:39:02;;;;;;;9.98;4.55;;;;;;;36.46;25.87;100034.97;5000940;28;20418;-74
2023/08/18 00:41:30;;;;;;;11.95;3.50;;;;;;;36.49;25.63;100040.94;4997015;28;20499;-75
2023/08/18 00:43:59;;;;;;;10.55;4.32;;;;;;;36.46;25.22;100035.81;4998633;28;20100;-76
2023/08/18 00:46:30;;;;;;;9.07;4.63;;;;;;;36.45;25.19;100039.50;5006129;28;20137;-77
2023/08/18 00:49:01;;;;;;;6.13;3.40;;;;;;;36.38;25.25;100032.97;5005454;28;20050;-74
2023/08/18 00:51:34;;;;;;;9.43;3.30;;;;;;;36.38;26.41;100032.97;5011208;28;20523;-78
2023/08/18 00:54:03;;;;;;;9.50;3.08;;;;;;;36.37;27.88;100025.03;5004865;28;20069;-81
2023/08/18 00:56:32;;;;;;;7.13;3.08;;;;;;;36.33;26.39;100024.47;5005944;28;20048;-72
2023/08/18 00:59:09;;;;;;;7.15;2.90;;;;;;;36.28;25.96;100022.16;5009444;28;20053;-79
2023/08/18 01:01:37;;;;;;;7.18;3.08;;;;;;;36.32;25.47;100021.91;5008830;28;20156;-79
2023/08/18 01:04:07;;;;;;;6.40;2.90;;;;;;;36.34;25.87;100019.91;4998265;28;20051;-79
2023/08/18 01:06:43;;;;;;;6.47;2.88;;;;;;;36.24;26.06;100015.38;5007299;28;20045;-81
2023/08/18 01:09:11;;;;;;;10.75;3.05;;;;;;;36.28;25.91;100011.38;5002733;28;20085;-79
2023/08/18 01:11:48;;;;;;;7.72;2.75;;;;;;;36.25;25.73;100005.44;5008633;28;20050;-77
2023/08/18 01:14:46;;;;;;;8.38;2.92;;;;;;;36.19;25.54;100009.53;5007792;28;20468;-78
2023/08/18 01:17:25;;;;;;;7.43;3.20;;;;;;;36.10;26.51;100006.78;5007161;28;20058;-81
2023/08/18 01:19:54;;;;;;;5.68;3.00;;;;;;;36.09;25.98;100000.53;5011416;28;20056;-80
2023/08/18 01:22:26;;;;;;;6.55;2.92;;;;;;;36.06;26.65;100001.69;5011200;28;20122;-80
2023/08/18 01:25:04;;;;;;;5.53;2.60;;;;;;;36.01;26.28;100003.06;5002440;28;20046;-80
2023/08/18 01:27:34;;;;;;;5.82;3.20;;;;;;;35.92;25.39;99999.38;5012694;28;20361;-78
2023/08/18 01:30:03;;;;;;;12.43;3.25;;;;;;;35.79;26.12;100009.53;5013529;28;20129;-81
2023/08/18 01:32:37;;;;;;;6.95;2.97;;;;;;;35.70;25.67;100004.94;5011104;28;20050;-75
2023/08/18 01:35:11;;;;;;;7.85;3.13;;;;;;;35.57;26.37;100008.66;5014742;28;20046;-80
2023/08/18 01:37:42;;;;;;;6.68;3.40;;;;;;;35.47;26.91;99996.16;5011094;28;20069;-84
2023/08/18 01:40:15;;;;;;;9.55;3.08;;;;;;;35.39;26.83;99994.13;5012166;28;20050;-77
2023/08/18 01:42:44;;;;;;;14.23;3.40;;;;;;;35.35;27.30;99992.72;5012095;28;20051;-75
2023/08/18 01:45:14;;;;;;;7.15;2.53;;;;;;;35.31;27.48;99994.81;5037961;28;20033;-83
2023/08/18 01:47:43;;;;;;;8.00;3.28;;;;;;;35.20;27.72;99987.66;5025271;28;20053;-81
2023/08/18 01:50:12;;;;;;;7.10;3.05;;;;;;;35.13;28.60;99989.16;5031131;28;20029;-81
2023/08/18 01:52:40;;;;;;;5.03;2.90;;;;;;;35.11;28.83;99993.81;5030871;28;20142;-83
2023/08/18 01:55:12;;;;;;;10.23;3.42;;;;;;;35.06;28.48;99996.03;5023906;28;20081;-82
2023/08/18 01:57:43;;;;;;;5.57;3.30;;;;;;;34.98;29.08;99990.44;5014719;28;20108;-80
2023/08/18 02:00:12;;;;;;;8.13;3.47;;;;;;;34.94;29.16;99991.72;5013062;28;20215;-82
2023/08/18 02:02:41;;;;;;;7.72;3.00;;;;;;;34.89;29.39;99991.22;5012209;28;20057;-82
2023/08/18 02:05:15;;;;;;;6.72;2.78;;;;;;;34.85;29.18;99987.13;5012444;28;20042;-80
2023/08/18 02:07:43;;;;;;;5.93;3.10;;;;;;;34.77;29.12;99994.00;5011122;28;20516;-82
2023/08/18 02:10:12;;;;;;;5.28;2.83;;;;;;;34.68;28.89;99992.03;5013003;28;20074;-83
2023/08/18 02:12:42;;;;;;;7.45;3.03;;;;;;;34.61;29.53;99997.09;5017378;28;20111;-82
2023/08/18 02:15:12;;;;;;;7.03;3.22;;;;;;;34.56;30.09;100004.66;5018918;28;20049;-83
2023/08/18 02:17:40;;;;;;;7.57;3.30;;;;;;;34.52;30.19;100005.03;5019134;28;20038;-81
2023/08/18 02:20:09;;;;;;;7.65;3.13;;;;;;;34.48;30.26;100001.75;5011248;28;20053;-84
2023/08/18 02:22:38;;;;;;;8.63;3.33;;;;;;;34.44;28.71;99999.44;5007921;28;20056;-83
2023/08/18 02:25:07;;;;;;;5.38;3.10;;;;;;;34.39;29.38;100007.88;5010326;28;20050;-79
2023/08/18 02:27:38;;;;;;;8.95;3.08;;;;;;;34.32;28.52;100002.16;5003241;28;20053;-79
2023/08/18 02:30:10;;;;;;;8.45;3.17;;;;;;;34.27;28.36;100001.69;5015767;28;20057;-84
2023/08/18 02:32:38;;;;;;;;;;;;;;;34.23;28.60;100013.66;5027556;28;20049;-84
2023/08/18 02:35:07;;;;;;;7.65;3.60;;;;;;;34.16;28.99;100007.94;5011218;28;19929;-79
2023/08/18 02:37:36;;;;;;;7.15;3.20;;;;;;;34.11;31.46;100009.28;5010324;28;20049;-78
2023/08/18 02:40:05;;;;;;;6.68;2.97;;;;;;;34.01;30.17;100009.13;5008905;28;20160;-78
2023/08/18 02:42:35;;;;;;;8.38;3.50;;;;;;;33.93;31.78;100008.91;5004299;28;20141;-78
2023/08/18 02:45:03;;;;;;;5.88;3.22;;;;;;;33.82;31.58;100011.59;5006814;28;20061;-76
2023/08/18 02:47:34;;;;;;;8.35;3.63;;;;;;;33.71;32.46;100018.66;5002803;28;20081;-77
2023/08/18 02:50:05;;;;;;;7.80;3.47;;;;;;;33.62;32.23;100021.22;5000306;28;20046;-79
2023/08/18 02:52:33;;;;;;;;;;;;;;;33.52;31.13;100024.59;5003945;28;20057;-77
2023/08/18 02:55:02;;;;;;;9.38;2.80;;;;;;;33.45;31.86;100026.06;5009924;28;19973;-78
2023/08/18 02:57:30;;;;;;;7.40;2.72;;;;;;;33.35;32.18;100033.97;5005917;28;20109;-78
2023/08/18 02:59:59;;;;;;;8.80;2.17;;;;;;;33.25;33.23;100030.28;5002616;28;20638;-76
2023/08/18 03:02:29;;;;;;;7.47;2.05;;;;;;;33.10;34.13;100036.78;5008542;28;20156;-79
2023/08/18 03:04:59;;;;;;;9.10;2.30;;;;;;;32.94;34.16;100035.28;5007113;28;20093;-81
2023/08/18 03:07:28;;;;;;;7.43;1.90;;;;;;;32.80;34.45;100037.25;5008109;28;20046;-75
2023/08/18 03:09:57;;;;;;;4.93;1.88;;;;;;;32.63;34.37;100052.78;5002758;28;20042;-77
2023/08/18 03:12:25;;;;;;;8.48;1.42;;;;;;;32.45;34.78;100054.09;5006397;28;20041;-77
2023/08/18 03:14:55;;;;;;;7.57;1.77;;;;;;;32.27;35.46;100056.28;4996591;28;20062;-78
2023/08/18 03:17:23;;;;;;;5.60;1.65;;;;;;;32.15;35.63;100058.03;5009416;28;20426;-75
2023/08/18 03:19:52;;;;;;;4.05;1.92;;;;;;;32.02;35.48;100065.22;5002112;28;20046;-75
2023/08/18 03:22:22;;;;;;;4.25;1.67;;;;;;;31.86;36.36;100060.91;5010316;28;20057;-78
2023/08/18 03:25:03;;;;;;;4.63;1.60;;;;;;;31.74;36.42;100069.81;5003630;28;20054;-76
2023/08/18 03:34:01;;;;;;;5.18;1.98;;;;;;;31.19;38.25;100090.47;5006117;28;20458;-73
2023/08/18 03:36:30;;;;;;;6.53;1.50;;;;;;;30.91;38.83;100091.44;5003916;28;20049;-79
2023/08/18 03:39:00;;;;;;;9.32;2.22;;;;;;;30.77;38.73;100097.66;5013776;28;20060;-75
2023/08/18 03:41:29;;;;;;;5.07;1.52;;;;;;;30.66;38.46;100101.03;5008118;28;20321;-77
2023/08/18 03:43:58;;;;;;;3.70;1.67;;;;;;;30.60;36.56;100098.72;5006594;28;20058;-77
2023/08/18 03:46:27;;;;;;;5.13;1.80;;;;;;;30.56;39.77;100107.94;5002972;28;20045;-76
2023/08/18 03:48:56;;;;;;;5.05;1.60;;;;;;;30.50;40.52;100102.97;5005151;28;20050;-77
2023/08/18 03:51:26;;;;;;;3.38;1.55;;;;;;;30.45;39.61;100116.59;5005562;28;20050;-76
2023/08/18 03:53:54;;;;;;;5.28;1.52;;;;;;;30.36;38.15;100125.19;5002790;28;20104;-77
2023/08/18 03:56:24;;;;;;;5.72;1.58;;;;;;;30.25;38.47;100133.00;5003806;28;20141;-75
2023/08/18 03:58:53;;;;;;;3.05;1.10;;;;;;;30.16;37.75;100136.22;5010941;28;20217;-78
2023/08/18 04:01:24;;;;;;;5.53;1.38;;;;;;;30.11;37.39;100141.84;5010601;28;20161;-80
2023/08/18 04:03:57;;;;;;;5.80;1.70;;;;;;;30.06;37.96;100142.13;5004589;28;20054;-75
2023/08/18 04:06:26;;;;;;;7.35;1.63;;;;;;;29.99;38.01;100146.13;5010342;28;20045;-74
2023/08/18 04:09:06;;;;;;;4.50;1.30;;;;;;;29.93;38.01;100149.16;5005881;28;20085;-75
2023/08/18 04:11:36;;;;;;;5.95;1.13;;;;;;;29.86;38.34;100148.69;5005928;28;20050;-82
2023/08/18 04:14:05;;;;;;;1.65;0.90;;;;;;;29.82;36.27;100155.13;5006290;28;20049;-76
2023/08/18 04:16:34;;;;;;;3.50;0.80;;;;;;;29.78;34.99;100158.97;5012788;28;20058;-76
2023/08/18 04:19:03;;;;;;;1.80;0.80;;;;;;;29.73;35.92;100163.69;5008596;28;20072;-75
2023/08/18 04:21:33;;;;;;;4.68;1.27;;;;;;;29.66;36.90;100175.66;5004368;28;20141;-84
2023/08/18 04:24:02;;;;;;;1.02;0.60;;;;;;;29.60;35.54;100176.88;5006139;28;20959;-78
2023/08/18 04:26:31;;;;;;;1.25;0.77;;;;;;;29.54;35.90;100187.03;5001726;28;20081;-73
2023/08/18 04:29:01;;;;;;;3.35;0.73;;;;;;;29.47;36.29;100186.53;5004344;28;20429;-79
2023/08/18 04:31:37;;;;;;;0.70;0.60;;;;;;;29.39;36.22;100186.13;5009068;28;20523;-78
2023/08/18 04:34:05;;;;;;;2.28;0.88;;;;;;;29.32;36.62;100185.63;5007833;28;20054;-77
2023/08/18 04:36:34;;;;;;;1.10;0.80;;;;;;;29.25;36.78;100186.91;5009335;28;20057;-77
2023/08/18 04:39:03;;;;;;;2.72;0.80;;;;;;;29.14;36.67;100184.88;5009668;28;20049;-82
2023/08/18 04:41:33;;;;;;;0.90;0.60;;;;;;;29.00;36.94;100188.28;5009188;28;20409;-74
2023/08/18 04:44:03;;;;;;;2.47;0.60;;;;;;;28.91;37.39;100188.81;5008542;28;20061;-76
2023/08/18 04:46:32;;;;;;;1.75;0.60;;;;;;;28.85;37.76;100191.81;5006690;28;20053;-75
2023/08/18 04:49:01;;;;;;;0.77;0.60;;;;;;;28.72;38.03;100178.31;5006821;28;20065;-76
2023/08/18 04:51:30;;;;;;;2.53;0.75;;;;;;;28.68;38.07;100179.44;5006526;28;20056;-76
2023/08/18 04:53:59;;;;;;;3.10;1.33;;;;;;;28.63;38.50;100196.59;5011354;28;20062;-76
2023/08/18 04:56:28;;;;;;;0.93;0.60;;;;;;;28.54;39.08;100195.28;5014049;28;20491;-75
2023/08/18 04:58:57;;;;;;;1.85;0.80;;;;;;;28.46;38.94;100198.34;5008283;28;20050;-73
2023/08/18 05:01:28;;;;;;;0.75;0.60;;;;;;;28.37;39.35;100197.03;5011618;28;20082;-75
2023/08/18 05:03:57;;;;;;;1.50;0.80;;;;;;;28.33;39.67;100194.59;5020598;28;20054;-72
2023/08/18 05:06:27;;;;;;;1.92;0.80;;;;;;;28.28;39.62;100204.63;5016055;28;20053;-76
2023/08/18 05:08:56;;;;;;;4.70;1.00;;;;;;;28.20;40.95;100205.91;5020545;28;20046;-75
2023/08/18 05:11:25;;;;;;;2.42;0.60;;;;;;;28.20;40.44;100202.41;5008190;28;20050;-77
2023/08/18 05:13:54;;;;;;;4.07;0.70;;;;;;;28.14;40.65;100203.56;5006289;28;20076;-77
2023/08/18 05:16:37;;;;;;;1.10;0.60;;;;;;;28.09;40.74;100208.28;5006112;28;20054;-77
2023/08/18 05:19:06;;;;;;;1.30;0.60;;;;;;;28.02;41.52;100209.53;5004352;28;20054;-78
2023/08/18 05:21:35;;;;;;;1.15;0.63;;;;;;;27.97;42.13;100212.44;5009145;28;20408;-77
2023/08/18 05:24:15;;;;;;;2.25;0.80;;;;;;;27.92;42.17;100216.25;5005662;28;20782;-78
2023/08/18 05:26:44;;;;;;;1.45;0.70;;;;;;;27.87;41.40;100212.97;5009912;28;20042;-77
2023/08/18 05:29:13;;;;;;;2.20;0.60;;;;;;;27.82;42.76;100215.81;5008605;28;20050;-77
2023/08/18 05:31:43;;;;;;;3.00;0.80;;;;;;;27.76;42.35;100214.34;5003661;28;20819;-77
2023/08/18 05:34:14;;;;;;;3.75;1.23;;;;;;;27.69;42.25;100223.56;5007654;28;20046;-80
2023/08/18 05:36:42;;;;;;;2.97;1.00;;;;;;;27.61;43.05;100225.75;5006858;28;20607;-80
2023/08/18 05:39:11;;;;;;;9.95;1.90;;;;;;;27.47;43.71;100230.88;5011005;28;20054;-77
2023/08/18 05:41:40;;;;;;;6.93;1.50;;;;;;;27.31;43.77;100228.13;5013739;28;20050;-76
2023/08/18 05:44:11;;;;;;;7.28;1.58;;;;;;;27.15;44.20;100225.31;5012355;28;20053;-77
2023/08/18 05:46:39;;;;;;;10.55;1.95;;;;;;;27.03;44.43;100233.84;5011941;28;20539;-79
2023/08/18 05:49:11;;;;;;;5.20;1.48;;;;;;;26.90;44.59;100234.41;5016143;28;20057;-78
2023/08/18 05:51:42;;;;;;;5.77;1.60;;;;;;;26.73;44.81;100242.28;5006194;28;20921;-79
2023/08/18 05:54:11;;;;;;;4.65;1.48;;;;;;;26.49;45.82;100241.59;5009769;28;20620;-78
2023/08/18 05:56:43;;;;;;;3.70;1.50;;;;;;;26.10;46.83;100253.00;5004980;28;20516;-79
2023/08/18 05:59:11;;;;;;;2.03;1.20;;;;;;;25.71;48.04;100259.88;5006867;28;20070;-75
2023/08/18 06:01:40;;;;;;;3.08;1.20;;;;;;;25.53;48.40;100259.78;5006617;28;20136;-77
2023/08/18 06:04:12;;;;;;;3.47;1.52;;;;;;;25.38;48.97;100264.78;5010105;28;20074;-77
2023/08/18 06:06:41;;;;;;;3.55;1.27;;;;;;;25.28;49.74;100274.84;5003165;28;20137;-77
2023/08/18 06:09:09;;;;;;;5.95;1.52;;;;;;;25.20;49.38;100270.81;5014191;28;20132;-77
2023/08/18 06:11:38;;;;;;;4.00;1.42;;;;;;;25.12;49.64;100271.03;5002937;28;20050;-76
2023/08/18 06:14:06;;;;;;;4.30;1.25;;;;;;;24.99;50.31;100277.72;5006461;28;20602;-76
2023/08/18 06:16:35;;;;;;;4.93;1.38;;;;;;;24.74;51.92;100272.47;5009513;28;20054;-77
2023/08/18 06:19:04;;;;;;;3.78;1.40;;;;;;;24.44;53.03;100276.16;5001034;28;20054;-76
2023/08/18 06:21:34;;;;;;;2.72;1.42;;;;;;;24.25;52.48;100275.06;5008727;28;20837;-78
2023/08/18 06:24:03;;;;;;;3.30;1.30;;;;;;;24.09;53.46;100279.16;5007383;28;20057;-81
2023/08/18 06:26:31;;;;;;;2.65;1.80;;;;;;;24.00;53.72;100291.75;5004646;28;20092;-78
2023/08/18 06:29:00;;;;;;;4.38;1.40;;;;;;;23.96;54.07;100289.28;5008489;28;20654;-76
2023/08/18 06:31:31;;;;;;;3.70;1.52;;;;;;;23.93;54.21;100289.38;5014826;28;20041;-75
2023/08/18 06:33:59;;;;;;;4.70;1.30;;;;;;;23.91;54.67;100300.00;5010579;28;20050;-76
2023/08/18 06:36:28;;;;;;;2.75;1.35;;;;;;;23.85;54.73;100302.84;5007985;28;20057;-76
2023/08/18 06:38:58;;;;;;;5.07;1.10;;;;;;;23.78;54.57;100307.47;5003385;28;20046;-76
2023/08/18 06:41:28;;;;;;;4.10;1.50;;;;;;;23.75;54.86;100306.69;5006494;28;20056;-76
2023/08/18 06:43:57;;;;;;;3.85;1.40;;;;;;;23.63;55.46;100308.78;5004610;28;20596;-76
2023/08/18 06:46:24;;;;;;;3.00;1.30;;;;;;;;;;5006350;28;20112;-76
2023/08/18 06:48:53;;;;;;;7.93;1.77;;;;;;;23.45;56.28;100314.63;5005804;28;20512;-76
2023/08/18 06:51:22;;;;;;;3.47;1.50;;;;;;;23.37;56.25;100321.94;5005672;28;20532;-76
2023/08/18 06:53:52;;;;;;;3.13;1.20;;;;;;;23.29;56.56;100318.66;5004641;28;20638;-75
2023/08/18 06:56:23;;;;;;;2.00;1.30;;;;;;;23.18;57.27;100321.59;5011635;28;20104;-75
2023/08/18 06:58:51;;;;;;;2.47;1.13;;;;;;;23.11;57.25;100325.34;5006665;28;20112;-76
2023/08/18 07:01:20;;;;;;;1.42;1.13;;;;;;;23.07;57.38;100329.84;5008328;28;20499;-76
2023/08/18 07:03:49;;;;;;;3.40;1.20;;;;;;;23.07;57.51;100329.00;5008189;28;20563;-76
2023/08/18 07:06:19;;;;;;;4.55;1.50;;;;;;;23.00;57.70;100346.78;5007234;28;20053;-75
2023/08/18 07:08:48;;;;;;;3.45;1.20;;;;;;;23.00;58.71;100352.06;5004658;28;20112;-75
2023/08/18 07:11:16;;;;;;;1.63;1.05;;;;;;;22.97;58.06;100354.72;5002608;28;20053;-75
2023/08/18 07:13:47;;;;;;;3.95;1.20;;;;;;;22.94;58.69;100360.97;5008065;28;20038;-75
2023/08/18 07:16:23;;;;;;;1.85;1.20;;;;;;;22.84;58.98;100363.88;5006834;28;20149;-75
2023/08/18 07:18:51;;;;;;;6.57;1.25;;;;;;;22.74;58.54;100358.84;5008800;28;20553;-76
2023/08/18 07:21:20;;;;;;;2.80;1.63;;;;;;;22.69;58.34;100360.75;5008213;28;20050;-76
2023/08/18 07:23:49;;;;;;;1.92;1.00;;;;;;;22.62;54.67;100359.19;5008961;28;20049;-76
2023/08/18 07:26:18;;;;;;;2.00;1.00;;;;;;;22.57;52.13;100355.81;5008466;28;20056;-76
2023/08/18 07:28:48;;;;;;;1.25;1.00;;;;;;;22.52;52.69;100361.22;5007906;28;20052;-76
2023/08/18 07:31:17;;;;;;;1.25;0.90;;;;;;;22.49;51.71;100358.63;5005230;28;20062;-75
2023/08/18 07:33:45;;;;;;;1.92;1.05;;;;;;;22.48;49.98;100358.72;5007397;28;20061;-75
2023/08/18 07:36:14;;;;;;;2.15;1.08;;;;;;;22.45;50.20;100374.56;5009502;28;20440;-76
2023/08/18 07:38:42;;;;;;;1.55;1.00;;;;;;;22.45;49.98;100374.56;5007842;28;20081;-75
2023/08/18 07:41:13;;;;;;;1.60;0.98;;;;;;;22.41;50.43;100376.44;5006775;28;20053;-76
2023/08/18 07:43:42;;;;;;;1.60;0.95;;;;;;;22.31;50.08;100381.09;5011324;28;20057;-75
2023/08/18 07:46:12;;;;;;;1.35;0.90;;;;;;;22.31;50.74;100385.47;5014906;28;20046;-77
2023/08/18 07:48:43;;;;;;;1.40;1.02;;;;;;;22.27;50.09;100384.69;5011555;28;20049;-77
2023/08/18 07:51:14;;;;;;;1.85;1.00;;;;;;;22.25;50.76;100394.41;5014363;28;20068;-76
2023/08/18 07:53:42;;;;;;;1.20;0.90;;;;;;;22.22;50.51;100401.50;5022164;28;20056;-77
2023/08/18 07:56:11;;;;;;;2.72;0.77;;;;;;;22.17;51.30;100402.47;5008199;28;20137;-78
2023/08/18 07:58:39;;;;;;;2.75;0.82;;;;;;;22.13;51.01;100405.22;5025250;28;20056;-76
2023/08/18 08:01:10;;;;;;;1.75;0.80;;;;;;;22.06;51.45;100395.72;5031134;28;20048;-77
2023/08/18 08:03:40;;;;;;;1.67;0.90;;;;;;;22.00;51.49;100399.38;5028420;28;20034;-77
2023/08/18 08:06:09;;;;;;;1.00;0.80;;;;;;;21.96;51.40;100406.47;5025055;28;20034;-77
2023/08/18 08:08:38;;;;;;;1.15;0.65;;;;;;;21.93;52.14;100406.53;5021571;28;20066;-79
2023/08/18 08:11:16;;;;;;;1.95;0.85;;;;;;;21.89;52.37;100406.66;5009804;28;20050;-78
2023/08/18 08:13:44;;;;;;;1.65;0.63;;;;;;;21.86;52.48;100417.25;5005599;28;20042;-75
2023/08/18 08:16:13;;;;;;;1.65;0.80;;;;;;;21.80;52.41;100420.88;5006516;28;20045;-77
2023/08/18 08:18:43;;;;;;;2.20;0.88;;;;;;;21.74;52.61;100419.28;5007409;28;20065;-77
2023/08/18 08:21:15;;;;;;;2.03;0.80;;;;;;;21.70;52.82;100430.75;5005585;28;20050;-77
2023/08/18 08:23:44;;;;;;;1.20;0.70;;;;;;;21.67;52.75;100427.31;5005105;28;20045;-76
2023/08/18 08:26:12;;;;;;;1.30;0.70;;;;;;;21.61;53.77;100419.56;5006265;28;20061;-77
2023/08/18 08:28:41;;;;;;;1.10;0.60;;;;;;;21.53;53.91;100420.59;5004198;28;20054;-77
2023/08/18 08:31:09;;;;;;;3.08;0.77;;;;;;;21.48;53.73;100425.06;5011102;28;20416;-79
2023/08/18 08:33:40;;;;;;;0.68;0.57;;;;;;;21.41;53.93;100435.75;5001769;28;20042;-78
2023/08/18 08:36:10;;;;;;;1.02;0.70;;;;;;;21.32;54.43;100435.00;5004144;28;20767;-77
2023/08/18 08:38:39;;;;;;;1.50;0.77;;;;;;;21.27;55.07;100436.88;5006382;28;20097;-76
2023/08/18 08:41:08;;;;;;;1.02;0.70;;;;;;;21.25;54.54;100433.41;5002351;28;20057;-76
2023/08/18 08:43:37;;;;;;;1.13;0.70;;;;;;;21.21;54.70;100433.50;5003907;28;20373;-77
2023/08/18 08:46:06;;;;;;;0.82;0.57;;;;;;;21.19;55.33;100435.28;5006347;28;20571;-76
2023/08/18 08:48:39;;;;;;;1.30;0.70;;;;;;;21.18;55.38;100430.94;5003853;28;20057;-76
2023/08/18 08:51:19;;;;;;;3.35;0.70;;;;;;;21.16;55.04;100432.72;5004421;28;20060;-77
2023/08/18 08:53:49;;;;;;;1.00;0.60;;;;;;;21.10;54.75;100437.22;5006183;28;20475;-78
2023/08/18 08:56:21;;;;;;;1.00;0.70;;;;;;;21.06;54.75;100443.41;5008726;28;20041;-77
2023/08/18 08:58:50;;;;;;;0.90;0.80;;;;;;;21.01;54.78;100450.53;5007220;28;20054;-77
2023/08/18 09:01:20;;;;;;;1.05;0.70;;;;;;;20.96;54.80;100441.88;5006501;28;20057;-77
2023/08/18 09:03:50;;;;;;;1.00;0.60;;;;;;;20.86;54.92;100438.50;5011251;28;20034;-76
2023/08/18 09:06:20;;;;;;;1.23;0.60;;;;;;;20.80;54.86;100446.53;5002441;28;20045;-74
2023/08/18 09:08:50;;;;;;;1.55;0.60;;;;;;;20.75;55.54;100443.09;5010930;28;20050;-76
2023/08/18 09:11:19;;;;;;;1.08;0.60;;;;;;;20.68;55.43;100437.09;5009137;28;20085;-74
2023/08/18 09:13:47;;;;;;;1.25;0.68;;;;;;;20.64;54.92;100447.69;5009323;28;20058;-76
2023/08/18 09:16:16;;;;;;;2.00;0.80;;;;;;;20.61;54.99;100451.22;5016984;28;20056;-77
2023/08/18 09:18:46;;;;;;;0.65;0.47;;;;;;;20.58;55.15;100453.91;5008188;28;20081;-76
2023/08/18 09:21:16;;;;;;;0.70;0.70;;;;;;;20.54;55.06;100467.09;5008033;28;20061;-76
2023/08/18 09:23:46;;;;;;;1.33;0.40;;;;;;;20.48;55.46;100476.81;5006986;28;20038;-76
2023/08/18 09:26:17;;;;;;;3.15;0.65;;;;;;;20.47;54.91;100479.47;5007584;28;20074;-77
2023/08/18 09:28:46;;;;;;;4.87;0.60;;;;;;;20.43;55.13;100470.78;5009840;28;20064;-76
2023/08/18 09:31:14;;;;;;;1.88;0.47;;;;;;;20.42;55.22;100470.78;5006768;28;20049;-77
2023/08/18 09:33:43;;;;;;;1.00;0.45;;;;;;;20.38;55.32;100469.94;5009190;28;20460;-78
2023/08/18 09:36:14;;;;;;;0.95;0.57;;;;;;;20.36;55.46;100470.88;5013690;28;20054;-77
2023/08/18 09:38:42;;;;;;;0.73;0.60;;;;;;;20.34;55.67;100475.28;5003444;28;20042;-77
2023/08/18 09:41:14;;;;;;;0.85;0.50;;;;;;;20.28;56.14;100468.38;5008027;28;20049;-77
2023/08/18 09:43:42;;;;;;;0.32;0.32;;;;;;;20.23;56.10;100471.06;5009182;28;20050;-78
2023/08/18 09:46:16;;;;;;;1.55;0.60;;;;;;;20.17;56.23;100476.41;5006591;28;20053;-77
2023/08/18 09:48:48;;;;;;;1.10;0.50;;;;;;;20.11;56.26;100478.25;5006529;28;20042;-77
2023/08/18 09:51:21;;;;;;;0.43;0.25;;;;;;;20.06;56.13;100484.41;5005642;28;20046;-77
2023/08/18 09:53:58;;;;;;;0.50;0.45;;;;;;;20.03;56.21;100483.63;5012658;28;20054;-78
2023/08/18 09:56:32;;;;;;;2.17;0.55;;;;;;;20.00;55.70;100486.28;5005094;28;20050;-77
2023/08/18 09:59:20;;;;;;;2.05;0.40;;;;;;;19.96;55.72;100489.84;5007583;28;20073;-77
2023/08/18 10:01:52;;;;;;;1.23;0.65;;;;;;;19.92;55.94;100494.25;5009776;28;20671;-77
2023/08/18 10:04:25;;;;;;;1.27;0.52;;;;;;;19.92;56.45;100496.00;5009564;28;20060;-77
2023/08/18 10:06:57;;;;;;;1.73;0.50;;;;;;;19.91;56.14;100502.16;5008031;28;20085;-76
2023/08/18 10:09:27;;;;;;;1.63;0.43;;;;;;;19.87;56.26;100504.81;5010492;28;20148;-77
2023/08/18 10:11:58;;;;;;;2.17;0.60;;;;;;;19.84;56.05;100502.25;5005720;28;20381;-76
2023/08/18 10:14:28;;;;;;;2.22;0.57;;;;;;;19.81;56.10;100510.16;5009262;28;20053;-76
2023/08/18 10:17:06;;;;;;;1.60;0.50;;;;;;;19.75;56.27;100512.84;5008254;28;20057;-76
2023/08/18 10:19:49;;;;;;;1.73;0.70;;;;;;;19.72;56.04;100520.75;5006954;28;20661;-76
2023/08/18 10:22:28;;;;;;;0.85;0.75;;;;;;;19.66;56.25;100516.41;5010888;28;20042;-77
2023/08/18 10:24:57;;;;;;;2.03;0.82;;;;;;;19.61;56.37;100517.38;5005936;28;20120;-75
2023/08/18 10:27:44;;;;;;;1.27;0.60;;;;;;;19.57;56.54;100513.03;5007652;28;20046;-76
2023/08/18 10:30:32;;;;;;;1.52;0.65;;;;;;;19.52;56.09;100526.22;5012017;28;20562;-78
2023/08/18 10:33:08;;;;;;;1.15;0.43;;;;;;;19.48;56.46;100534.13;5011389;28;20057;-75
2023/08/18 10:35:41;;;;;;;2.55;0.65;;;;;;;19.44;56.77;100538.53;5007945;28;20054;-77
2023/08/18 10:38:12;;;;;;;0.98;0.45;;;;;;;19.39;56.97;100543.84;5005876;28;20100;-77
2023/08/18 10:40:41;;;;;;;1.65;0.63;;;;;;;19.32;57.32;100552.66;5003106;28;20133;-76
2023/08/18 10:43:15;;;;;;;2.45;0.68;;;;;;;19.28;57.85;100550.94;5008724;28;20287;-78
2023/08/18 10:45:44;;;;;;;3.67;0.70;;;;;;;19.24;57.42;100551.84;5010840;28;20100;-77
2023/08/18 10:48:18;;;;;;;0.73;0.40;;;;;;;19.20;58.16;100560.66;5005817;28;20134;-78
2023/08/18 10:50:48;;;;;;;0.45;0.40;;;;;;;19.15;58.03;100550.19;5008377;28;20046;-78
2023/08/18 10:53:18;;;;;;;1.92;0.88;;;;;;;19.12;57.89;100555.44;5011791;28;20053;-77
2023/08/18 10:55:46;;;;;;;1.45;0.55;;;;;;;19.08;58.15;100558.13;5011045;28;20046;-78
2023/08/18 10:58:23;;;;;;;2.72;0.63;;;;;;;19.00;57.99;100556.44;5020626;28;20286;-76
2023/08/18 11:00:52;;;;;;;1.08;0.65;;;;;;;18.99;58.04;100570.44;5008170;28;20850;-77
2023/08/18 11:03:21;;;;;;;0.40;0.30;;;;;;;18.93;57.36;100573.09;5010839;28;20042;-76
2023/08/18 11:05:49;;;;;;;1.55;0.75;;;;;;;18.84;58.84;100584.50;5009015;28;20146;-77
2023/08/18 11:08:25;;;;;;;1.98;0.70;;;;;;;18.78;58.81;100586.31;5014820;28;20038;-76
2023/08/18 11:10:55;;;;;;;6.70;1.30;;;;;;;18.69;59.40;100589.84;5025693;28;20040;-77
2023/08/18 11:13:26;;;;;;;1.58;0.57;;;;;;;18.63;59.70;100593.38;5027705;28;20077;-78
2023/08/18 11:15:58;;;;;;;3.85;0.95;;;;;;;18.63;62.85;100589.88;5012135;28;20050;-77
2023/08/18 11:18:27;;;;;;;4.28;1.10;;;;;;;18.55;62.89;100584.66;5000348;28;20133;-76
2023/08/18 11:20:56;;;;;;;1.00;0.50;;;;;;;18.59;63.14;100598.63;5006947;28;20526;-77
2023/08/18 11:23:24;;;;;;;2.28;0.80;;;;;;;18.58;62.85;100605.63;5009529;28;20053;-76
2023/08/18 11:25:54;;;;;;;2.88;0.60;;;;;;;18.56;63.09;100604.75;5006072;28;20054;-77
2023/08/18 11:28:28;;;;;;;1.25;0.77;;;;;;;18.52;64.09;100604.78;5009412;28;20053;-76
2023/08/18 11:30:57;;;;;;;3.03;0.90;;;;;;;18.52;65.10;100597.78;5008579;28;20111;-76
2023/08/18 11:33:26;;;;;;;2.55;0.47;;;;;;;18.51;65.14;100606.56;5002601;28;20081;-78
2023/08/18 11:35:56;;;;;;;1.98;0.80;;;;;;;18.48;65.21;100609.16;5005478;28;20117;-77
2023/08/18 11:38:31;;;;;;;3.65;0.80;;;;;;;18.43;65.83;100610.94;5008041;28;20107;-77
2023/08/18 11:41:00;;;;;;;1.85;0.88;;;;;;;18.41;64.06;100628.41;5006597;28;20057;-77
2023/08/18 11:43:32;;;;;;;2.95;0.85;;;;;;;18.35;64.29;100623.22;5008175;28;20507;-77
2023/08/18 11:46:00;;;;;;;1.20;0.70;;;;;;;18.32;65.21;100625.84;5016608;28;20101;-77
2023/08/18 11:48:37;;;;;;;4.40;0.57;;;;;;;18.26;64.87;100631.13;5011863;28;20523;-77